Dragoon, AZ (85609)

1:15 PM MST on August 24, 2016 (GMT -0700)
Dragoon | | Change Station

Elev 4731 ft 32.03 °N, 110.09 °W | Updated 12 seconds ago

Scattered Clouds
Scattered Clouds
84.6 °F
Feels Like 82 °F
N
11.4
Wind Variable Wind from South
Gusts 11.4 mph

Today
High -- | Low -- °F
--% Chance of Precip.
Yesterday
High -- | Low -- °F
Precip. -- in
Pressure 29.98 in
Visibility 10.0 miles
Clouds Scattered Clouds 7500 ft
Heat Index 82 °F
Dew Point 46 °F
Humidity 26%
Rainfall 0.00 in
Snow Depth Not available.
5:50 AM 6:53 PM
Waning Gibbous, 54% visible
METAR KFHU 241958Z 31012KT 10SM SCT075 29/08 A3020 RMK AO2A SLP152 T02940081
Pressure 29.98 in
Visibility 10.0 miles
Clouds Scattered Clouds 7500 ft
Heat Index 82 °F
Dew Point 46 °F
Humidity 26%
Rainfall 0.00 in
Snow Depth Not available.
5:50 AM 6:53 PM
Waning Gibbous, 54% visible
METAR KFHU 241958Z 31012KT 10SM SCT075 29/08 A3020 RMK AO2A SLP152 T02940081

10-Day Weather Forecast

Almanac

Astronomy

Aug. 24, 2016 Rise Set
Actual Time
Civil Twilight
Nautical Twilight
Astronomical Twilight
Moon
Length of Visible Light
Length of Day
Tomorrow will be .
, % of the Moon is Illuminated

Today's Extremes

State Highs State Lows

Community

WunderPhotos

Upload Photos

1,934,699 photos uploaded!

WunderBlog® & News

Nearby

Air Quality

  Air Quality AQ Index Pollutant
Not available.

Snow Depth

Station Depth Elevation

Earthquake Activity

City Distance Mag. Time & Date
Minimum magnitude displayed is 2.5.

Coastal Water Temperatures

Place Temperature

Stations

Nearby Weather Stations

Station Location Temp. Windchill Dew Point Humidity Wind Precip. Elev Updated Type
                   

Watches & Warnings

There are currently no watches in effect.